Barney, Arkansas
Current Conditions -  °F | °C
As of 7:58 PM on Thursday 20 Nov 2014 (Local Time) from KLRF Reporting Station
Few Clouds Few Clouds  
Wind Chill: 40°   Ceiling: Unl
Heat Index: 40°   Visibility: 10mi
Dew Point: 33°   Wind: 0mph
Humidity: 75%   Direction: NA
Pressure: 30.19"   Gusts: NA
Location:  35.2186°N, 92.2123°W
Report Text: KLRF 210158Z AUTO 00000KT 10SM FEW055 05/01 A3019 RMK AO2 SLP228 T00460006
Loading
Personal Weather Stations






























Interactive Weather Map New forecast layout! Learn more

10-Day Weather Forecast

Advertisements
Track Severe Weather on mobile